Time;durP1;ratioP1;P1;durP2;ratioP2;P2;SDS_P1;SDS_P2;PMS_P1;PMS_P2;Temp;Humidity;BMP_temperature;BMP_pressure;BME280_temperature;BME280_humidity;BME280_pressure;Samples;Min_cycle;Max_cycle;Signal;HPM_P1;HPM_P2
2024/04/13 00:03:20;;;;;;;5.47;2.97;;;;;;;;;;11198233;26;20094;-51
2024/04/13 00:08:22;;;;;;;6.25;3.05;;;;;;;;;;11196511;26;20015;-49
2024/04/13 00:13:23;;;;;;;12.10;3.13;;;;;;;;;;11175519;26;20003;-52
2024/04/13 00:18:24;;;;;;;3.97;2.58;;;;;;;;;;11189602;26;20075;-50
2024/04/13 00:23:25;;;;;;;5.80;3.47;;;;;;;;;;11188037;26;20506;-52
2024/04/13 00:28:27;;;;;;;5.40;2.92;;;;;;;;;;11194743;26;19999;-48
2024/04/13 00:33:28;;;;;;;3.10;2.80;;;;;;;;;;11175086;26;20007;-51
2024/04/13 00:38:29;;;;;;;3.03;2.60;;;;;;;;;;11190620;26;20454;-50
2024/04/13 00:43:30;;;;;;;5.78;3.22;;;;;;;;;;11184654;26;20348;-51
2024/04/13 00:48:32;;;;;;;3.33;2.65;;;;;;;;;;11190091;26;20557;-51
2024/04/13 00:53:37;;;;;;;4.47;2.88;;;;;;;;;;11168930;26;19999;-53
2024/04/13 00:58:40;;;;;;;4.07;2.72;;;;;;;;;;11184040;26;20910;-53
2024/04/13 01:03:43;;;;;;;6.18;2.70;;;;;;;;;;11136017;26;20421;-52
2024/04/13 01:08:45;;;;;;;5.57;3.10;;;;;;;;;;11173964;26;20039;-52
2024/04/13 01:13:47;;;;;;;14.13;3.13;;;;;;;;;;11184667;26;20084;-53
2024/04/13 01:18:48;;;;;;;3.92;2.67;;;;;;;;;;11165165;26;20434;-52
2024/04/13 01:24:05;;;;;;;3.42;2.67;;;;;;;;;;11189185;26;20051;-51
2024/04/13 01:29:10;;;;;;;8.82;2.60;;;;;;;;;;11161689;26;20003;-58
2024/04/13 01:34:11;;;;;;;4.20;2.60;;;;;;;;;;11184532;26;20004;-51
2024/04/13 01:39:13;;;;;;;7.05;2.45;;;;;;;;;;11191987;26;20044;-50
2024/04/13 01:44:15;;;;;;;4.28;2.58;;;;;;;;;;11191483;26;20014;-50
2024/04/13 01:49:16;;;;;;;3.10;2.63;;;;;;;;;;11183603;26;20072;-52
2024/04/13 01:54:17;;;;;;;3.90;2.35;;;;;;;;;;11196077;26;20014;-51
2024/04/13 01:59:18;;;;;;;3.35;2.72;;;;;;;;;;11198726;26;20004;-52
2024/04/13 02:04:20;;;;;;;9.82;2.90;;;;;;;;;;11177749;26;20434;-54
2024/04/13 02:09:22;;;;;;;3.88;2.55;;;;;;;;;;11176064;26;20004;-51
2024/04/13 02:14:23;;;;;;;4.55;2.65;;;;;;;;;;11189603;26;20016;-51
2024/04/13 02:19:25;;;;;;;5.15;2.60;;;;;;;;;;11177387;26;20604;-52
2024/04/13 02:24:26;;;;;;;3.67;2.65;;;;;;;;;;11183473;26;20010;-52
2024/04/13 02:29:27;;;;;;;4.40;2.70;;;;;;;;;;11188755;26;20047;-50
2024/04/13 02:34:28;;;;;;;2.53;2.30;;;;;;;;;;11185700;26;20028;-49
2024/04/13 02:39:32;;;;;;;3.83;2.50;;;;;;;;;;11176318;26;19999;-52
2024/04/13 02:44:33;;;;;;;4.53;2.50;;;;;;;;;;11183157;26;20056;-50
2024/04/13 02:49:34;;;;;;;7.68;2.75;;;;;;;;;;11191531;26;20018;-51
2024/04/13 02:54:35;;;;;;;8.20;2.42;;;;;;;;;;11159800;26;20084;-50
2024/04/13 02:59:38;;;;;;;10.38;2.92;;;;;;;;;;11192143;26;19999;-49
2024/04/13 03:04:39;;;;;;;5.93;2.95;;;;;;;;;;11174808;26;20031;-50
2024/04/13 03:09:42;;;;;;;4.65;2.65;;;;;;;;;;11170620;26;20019;-52
2024/04/13 03:14:43;;;;;;;4.68;2.40;;;;;;;;;;11182210;26;20334;-53
2024/04/13 03:19:45;;;;;;;4.15;2.60;;;;;;;;;;11194378;26;20461;-51
2024/04/13 03:24:46;;;;;;;3.20;2.03;;;;;;;;;;11174167;26;19996;-50
2024/04/13 03:29:47;;;;;;;4.72;2.35;;;;;;;;;;11180475;26;20357;-53
2024/04/13 03:34:48;;;;;;;10.45;2.53;;;;;;;;;;11195910;26;19995;-51
2024/04/13 03:39:50;;;;;;;7.50;2.80;;;;;;;;;;11194186;26;20000;-53
2024/04/13 03:44:51;;;;;;;5.45;2.60;;;;;;;;;;11182284;26;20026;-52
2024/04/13 03:49:54;;;;;;;3.08;2.40;;;;;;;;;;11197171;26;19995;-53
2024/04/13 03:54:56;;;;;;;4.93;2.50;;;;;;;;;;11190575;26;20015;-51
2024/04/13 03:59:57;;;;;;;5.38;2.80;;;;;;;;;;11181751;26;20469;-53
2024/04/13 04:04:59;;;;;;;5.90;2.63;;;;;;;;;;11179024;26;20102;-54
2024/04/13 04:10:04;;;;;;;3.25;2.15;;;;;;;;;;11188278;26;20008;-52
2024/04/13 04:15:06;;;;;;;4.43;2.38;;;;;;;;;;11185880;26;20687;-52
2024/04/13 04:20:08;;;;;;;3.67;2.80;;;;;;;;;;11189605;26;20003;-51
2024/04/13 04:25:09;;;;;;;3.95;2.20;;;;;;;;;;11173462;26;20019;-52
2024/04/13 04:30:11;;;;;;;3.67;2.25;;;;;;;;;;11189453;26;20039;-52
2024/04/13 04:35:12;;;;;;;3.88;2.40;;;;;;;;;;11181244;26;20004;-49
2024/04/13 04:40:13;;;;;;;2.38;2.17;;;;;;;;;;11161119;26;20073;-52
2024/04/13 04:45:14;;;;;;;3.55;2.20;;;;;;;;;;11182271;26;20027;-51
2024/04/13 04:50:15;;;;;;;9.38;2.20;;;;;;;;;;11174342;26;20174;-52
2024/04/13 04:55:17;;;;;;;2.25;2.05;;;;;;;;;;11186458;26;20015;-52
2024/04/13 05:00:18;;;;;;;2.47;2.22;;;;;;;;;;11179224;26;20003;-53
2024/04/13 05:05:19;;;;;;;2.13;1.92;;;;;;;;;;11194181;26;20503;-53
2024/04/13 05:10:21;;;;;;;5.13;2.75;;;;;;;;;;11182600;26;20003;-52
2024/04/13 05:15:22;;;;;;;3.33;2.15;;;;;;;;;;11187993;26;20342;-55
2024/04/13 05:20:23;;;;;;;7.05;2.10;;;;;;;;;;11174480;26;20000;-53
2024/04/13 05:25:25;;;;;;;11.55;2.72;;;;;;;;;;11191605;26;20015;-49
2024/04/13 05:30:27;;;;;;;4.35;2.53;;;;;;;;;;11193127;26;20010;-50
2024/04/13 05:35:29;;;;;;;3.03;2.28;;;;;;;;;;11191495;26;19999;-51
2024/04/13 05:40:30;;;;;;;2.60;2.08;;;;;;;;;;11188084;26;20080;-50
2024/04/13 05:45:31;;;;;;;6.85;3.22;;;;;;;;;;11164460;26;20342;-51
2024/04/13 05:50:33;;;;;;;4.40;2.28;;;;;;;;;;11192231;26;20439;-52
2024/04/13 05:56:08;;;;;;;3.10;1.95;;;;;;;;;;11194128;26;20342;-53
2024/04/13 06:01:09;;;;;;;6.18;2.83;;;;;;;;;;11185578;26;20013;-52
2024/04/13 06:06:10;;;;;;;4.90;2.17;;;;;;;;;;11169927;26;20080;-53
2024/04/13 06:11:12;;;;;;;5.60;2.42;;;;;;;;;;11179081;26;20492;-52
2024/04/13 06:16:13;;;;;;;4.88;2.42;;;;;;;;;;11183915;26;20074;-53
2024/04/13 06:21:15;;;;;;;6.32;2.30;;;;;;;;;;11174726;26;20335;-53
2024/04/13 06:26:16;;;;;;;3.20;2.20;;;;;;;;;;11186920;26;20098;-52
2024/04/13 06:31:17;;;;;;;13.50;2.92;;;;;;;;;;11166616;26;20045;-53
2024/04/13 06:36:18;;;;;;;8.43;3.70;;;;;;;;;;11188509;26;20015;-54
2024/04/13 06:41:20;;;;;;;9.27;3.92;;;;;;;;;;11181163;26;20019;-54
2024/04/13 06:46:22;;;;;;;6.68;3.97;;;;;;;;;;11167739;26;20007;-53
2024/04/13 06:51:23;;;;;;;10.75;4.07;;;;;;;;;;11174912;26;20007;-52
2024/04/13 06:56:24;;;;;;;9.55;3.90;;;;;;;;;;11184263;26;21169;-51
2024/04/13 07:01:27;;;;;;;3.80;3.40;;;;;;;;;;11189308;26;20068;-56
2024/04/13 07:06:30;;;;;;;9.40;3.30;;;;;;;;;;11168424;26;20003;-51
2024/04/13 07:11:31;;;;;;;7.13;3.55;;;;;;;;;;11178181;26;20015;-52
2024/04/13 07:16:33;;;;;;;8.38;2.85;;;;;;;;;;11171057;26;20007;-48
2024/04/13 07:21:34;;;;;;;8.43;3.05;;;;;;;;;;11158490;26;20598;-52
2024/04/13 07:26:36;;;;;;;7.35;3.35;;;;;;;;;;11189660;26;20003;-53
2024/04/13 07:31:37;;;;;;;6.15;3.40;;;;;;;;;;11178513;26;20007;-55
2024/04/13 07:36:38;;;;;;;10.88;2.92;;;;;;;;;;11171839;26;20338;-52
2024/04/13 07:41:40;;;;;;;4.68;3.00;;;;;;;;;;11161967;26;20661;-51
2024/04/13 07:46:41;;;;;;;4.15;2.83;;;;;;;;;;11173822;26;19999;-52
2024/04/13 07:51:43;;;;;;;7.47;2.90;;;;;;;;;;11174551;26;20364;-51
2024/04/13 07:56:44;;;;;;;12.40;3.17;;;;;;;;;;11155898;26;20455;-52
2024/04/13 08:01:45;;;;;;;9.32;3.33;;;;;;;;;;11158875;26;20077;-50
2024/04/13 08:06:46;;;;;;;9.93;3.80;;;;;;;;;;11177838;26;20003;-54
2024/04/13 08:11:47;;;;;;;6.13;3.92;;;;;;;;;;11184469;26;20053;-57
2024/04/13 08:16:48;;;;;;;5.50;3.30;;;;;;;;;;11168993;26;20003;-53
2024/04/13 08:21:51;;;;;;;6.85;2.90;;;;;;;;;;11197776;26;20389;-51
2024/04/13 08:26:52;;;;;;;7.85;3.60;;;;;;;;;;11185477;26;19999;-54
2024/04/13 08:31:53;;;;;;;7.18;3.13;;;;;;;;;;11196753;26;20345;-51
2024/04/13 08:36:54;;;;;;;8.63;3.72;;;;;;;;;;11198416;26;20076;-51
2024/04/13 08:42:09;;;;;;;8.68;3.72;;;;;;;;;;11198096;26;20560;-51
2024/04/13 08:47:12;;;;;;;16.33;4.32;;;;;;;;;;11174421;26;20004;-49
2024/04/13 08:52:13;;;;;;;6.72;3.58;;;;;;;;;;11190440;26;20000;-51
2024/04/13 08:57:26;;;;;;;11.90;3.63;;;;;;;;;;11191410;26;20510;-52
2024/04/13 09:02:33;;;;;;;8.63;3.03;;;;;;;;;;11193410;26;20443;-51
2024/04/13 09:07:35;;;;;;;7.22;3.25;;;;;;;;;;11163171;26;20007;-51
2024/04/13 09:12:37;;;;;;;11.80;3.58;;;;;;;;;;11181429;26;20035;-50
2024/04/13 09:17:39;;;;;;;10.75;3.55;;;;;;;;;;11191800;26;20035;-51
2024/04/13 09:22:40;;;;;;;13.10;4.07;;;;;;;;;;11190551;26;20000;-51
2024/04/13 09:27:42;;;;;;;13.93;3.50;;;;;;;;;;11171283;26;20502;-60
2024/04/13 09:32:43;;;;;;;14.50;3.97;;;;;;;;;;11150378;26;20096;-50
2024/04/13 09:37:45;;;;;;;10.20;3.60;;;;;;;;;;11159739;26;20014;-51
2024/04/13 09:42:48;;;;;;;11.15;3.10;;;;;;;;;;11155128;26;20023;-49
2024/04/13 09:47:52;;;;;;;14.35;3.95;;;;;;;;;;11156283;26;20004;-52
2024/04/13 09:52:54;;;;;;;10.25;3.97;;;;;;;;;;11150313;26;20069;-54
2024/04/13 09:57:56;;;;;;;11.10;4.20;;;;;;;;;;11169329;26;20287;-55
2024/04/13 10:02:57;;;;;;;12.60;3.63;;;;;;;;;;11167958;26;20013;-52
2024/04/13 10:08:00;;;;;;;10.40;3.70;;;;;;;;;;11157160;26;20008;-52
2024/04/13 10:13:02;;;;;;;9.73;3.83;;;;;;;;;;11185854;26;20217;-52
2024/04/13 10:18:04;;;;;;;7.05;3.63;;;;;;;;;;11170639;26;20357;-55
2024/04/13 10:23:10;;;;;;;6.55;3.15;;;;;;;;;;11150066;26;20007;-53
2024/04/13 10:28:21;;;;;;;11.45;3.47;;;;;;;;;;11149704;26;20000;-52
2024/04/13 10:33:27;;;;;;;8.80;3.42;;;;;;;;;;11180285;26;20015;-51
2024/04/13 10:38:34;;;;;;;8.88;3.17;;;;;;;;;;11182612;26;20000;-50
2024/04/13 10:43:35;;;;;;;6.88;2.90;;;;;;;;;;11175270;26;20319;-53
2024/04/13 10:48:42;;;;;;;5.38;3.45;;;;;;;;;;11175221;26;20473;-55
2024/04/13 10:53:43;;;;;;;5.72;3.65;;;;;;;;;;11195579;26;20011;-53
2024/04/13 10:58:44;;;;;;;6.40;3.08;;;;;;;;;;11195358;26;20004;-53
2024/04/13 11:03:45;;;;;;;10.70;3.28;;;;;;;;;;11192576;26;20000;-53
2024/04/13 11:08:46;;;;;;;9.55;3.20;;;;;;;;;;11172302;26;20011;-53
2024/04/13 11:13:48;;;;;;;5.00;3.10;;;;;;;;;;11145422;26;20081;-52
2024/04/13 11:18:49;;;;;;;9.13;3.05;;;;;;;;;;11158631;26;19996;-55
2024/04/13 11:23:50;;;;;;;8.38;3.53;;;;;;;;;;11191023;26;20106;-57
2024/04/13 11:28:51;;;;;;;5.40;3.50;;;;;;;;;;11142929;26;20079;-50
2024/04/13 11:33:53;;;;;;;4.57;3.10;;;;;;;;;;11159209;26;19995;-51
2024/04/13 11:38:54;;;;;;;9.38;3.63;;;;;;;;;;11185197;26;20012;-52
2024/04/13 11:43:57;;;;;;;3.45;3.00;;;;;;;;;;11188710;26;20086;-50
2024/04/13 11:48:59;;;;;;;4.93;2.92;;;;;;;;;;11192375;26;20000;-49
2024/04/13 11:54:00;;;;;;;8.57;3.33;;;;;;;;;;11197163;26;20278;-51
2024/04/13 11:59:02;;;;;;;8.80;2.97;;;;;;;;;;11185548;26;20398;-51
2024/04/13 12:04:03;;;;;;;10.07;3.38;;;;;;;;;;11192355;26;20007;-50
2024/04/13 12:09:04;;;;;;;8.55;3.15;;;;;;;;;;11189578;26;20000;-52
2024/04/13 12:14:06;;;;;;;9.00;3.25;;;;;;;;;;11149965;26;20015;-50
2024/04/13 12:19:07;;;;;;;10.35;3.63;;;;;;;;;;11198536;26;20015;-49
2024/04/13 12:24:08;;;;;;;20.55;3.33;;;;;;;;;;11191093;26;20007;-53
2024/04/13 12:29:10;;;;;;;12.27;3.22;;;;;;;;;;11186274;26;20004;-50
2024/04/13 12:34:11;;;;;;;13.93;3.95;;;;;;;;;;11166000;26;20020;-50
2024/04/13 12:39:16;;;;;;;19.20;3.47;;;;;;;;;;11170581;26;20539;-49
2024/04/13 12:44:17;;;;;;;15.27;3.47;;;;;;;;;;11182748;26;20097;-51
2024/04/13 12:49:19;;;;;;;15.60;3.50;;;;;;;;;;11195408;26;20354;-50
2024/04/13 12:54:20;;;;;;;11.60;3.80;;;;;;;;;;11200163;26;20552;-50
2024/04/13 12:59:21;;;;;;;18.20;3.90;;;;;;;;;;11184519;26;20043;-52
2024/04/13 13:04:22;;;;;;;7.07;3.33;;;;;;;;;;11162411;26;20445;-51
2024/04/13 13:09:23;;;;;;;12.65;3.35;;;;;;;;;;11168230;26;20090;-51
2024/04/13 13:14:25;;;;;;;6.15;3.15;;;;;;;;;;11180098;26;20004;-50
2024/04/13 13:19:26;;;;;;;8.85;3.10;;;;;;;;;;11188038;26;19999;-49
2024/04/13 13:24:27;;;;;;;12.90;3.08;;;;;;;;;;11196636;26;20019;-51
2024/04/13 13:29:28;;;;;;;5.75;2.58;;;;;;;;;;11183225;26;20007;-50
2024/04/13 13:34:29;;;;;;;9.80;2.83;;;;;;;;;;11198786;26;20045;-51
2024/04/13 13:39:30;;;;;;;4.80;3.17;;;;;;;;;;11174789;26;20000;-51
2024/04/13 13:44:32;;;;;;;12.00;3.03;;;;;;;;;;11170378;26;20323;-51
2024/04/13 13:49:33;;;;;;;8.82;2.70;;;;;;;;;;11161998;26;20004;-50
2024/04/13 13:54:34;;;;;;;3.75;2.65;;;;;;;;;;11186477;26;20004;-51
2024/04/13 13:59:35;;;;;;;5.57;2.95;;;;;;;;;;11175352;26;20023;-49
2024/04/13 14:04:36;;;;;;;9.40;3.13;;;;;;;;;;11195458;26;20015;-50
2024/04/13 14:09:37;;;;;;;4.93;3.05;;;;;;;;;;11174668;26;20440;-56
2024/04/13 14:14:39;;;;;;;6.28;3.00;;;;;;;;;;11125666;21;20008;-58
2024/04/13 14:19:40;;;;;;;5.75;2.58;;;;;;;;;;11101901;26;20548;-59
2024/04/13 14:24:41;;;;;;;5.82;2.60;;;;;;;;;;11064388;26;20029;-59
2024/04/13 14:29:42;;;;;;;5.70;3.10;;;;;;;;;;11071251;26;20092;-58
2024/04/13 14:34:43;;;;;;;7.30;3.08;;;;;;;;;;11027136;26;20083;-59
2024/04/13 14:39:47;;;;;;;5.10;2.95;;;;;;;;;;11051468;26;20086;-59
2024/04/13 14:44:50;;;;;;;5.15;3.20;;;;;;;;;;11050349;26;20009;-58
2024/04/13 14:49:51;;;;;;;11.85;3.63;;;;;;;;;;11016618;26;20079;-59
2024/04/13 14:54:52;;;;;;;4.85;3.33;;;;;;;;;;11038147;26;20011;-59
2024/04/13 14:59:53;;;;;;;5.10;2.55;;;;;;;;;;11048126;26;20407;-58
2024/04/13 15:04:54;;;;;;;5.05;3.00;;;;;;;;;;11057463;26;20040;-58
2024/04/13 15:09:55;;;;;;;3.72;2.80;;;;;;;;;;11073481;26;20072;-59
2024/04/13 15:14:56;;;;;;;9.25;3.03;;;;;;;;;;11083478;26;20081;-59
2024/04/13 15:19:58;;;;;;;8.60;3.38;;;;;;;;;;11041248;26;20000;-58
2024/04/13 15:24:59;;;;;;;7.53;3.22;;;;;;;;;;11101358;26;19997;-58
2024/04/13 15:30:00;;;;;;;4.88;3.08;;;;;;;;;;11047428;26;20017;-59
2024/04/13 15:35:02;;;;;;;7.05;2.88;;;;;;;;;;11064893;26;20015;-59
2024/04/13 15:40:03;;;;;;;5.07;2.88;;;;;;;;;;11065549;26;20008;-58
2024/04/13 15:45:06;;;;;;;6.78;2.47;;;;;;;;;;11055526;26;20036;-58
2024/04/13 15:50:08;;;;;;;6.28;3.10;;;;;;;;;;11067596;26;20001;-58
2024/04/13 15:55:11;;;;;;;6.55;3.30;;;;;;;;;;11055842;26;20455;-58
2024/04/13 16:00:18;;;;;;;3.88;2.97;;;;;;;;;;11046481;26;20000;-59
2024/04/13 16:05:19;;;;;;;5.17;2.77;;;;;;;;;;10982377;26;20048;-59
2024/04/13 16:10:21;;;;;;;4.65;2.90;;;;;;;;;;11037480;26;20029;-58
2024/04/13 16:15:22;;;;;;;4.40;2.67;;;;;;;;;;11057593;26;20029;-59
2024/04/13 16:20:23;;;;;;;2.92;2.67;;;;;;;;;;11066189;26;20008;-58
2024/04/13 16:25:25;;;;;;;8.57;3.50;;;;;;;;;;10927569;26;20434;-59
2024/04/13 16:30:26;;;;;;;5.43;3.00;;;;;;;;;;11033038;26;20072;-58
2024/04/13 16:35:27;;;;;;;3.75;3.00;;;;;;;;;;10970412;26;20020;-59
2024/04/13 16:40:30;;;;;;;3.25;2.75;;;;;;;;;;11015713;26;20508;-58
2024/04/13 16:45:31;;;;;;;6.00;3.35;;;;;;;;;;11008611;26;20096;-58
2024/04/13 16:50:33;;;;;;;5.90;3.25;;;;;;;;;;11020025;26;20030;-58
2024/04/13 16:55:34;;;;;;;3.58;2.92;;;;;;;;;;11039726;26;19997;-58
2024/04/13 17:00:36;;;;;;;3.17;2.88;;;;;;;;;;11008559;26;20024;-58
2024/04/13 17:05:37;;;;;;;4.53;2.97;;;;;;;;;;10987350;26;20002;-59
2024/04/13 17:10:39;;;;;;;4.28;3.10;;;;;;;;;;11008819;26;20036;-58
2024/04/13 17:15:40;;;;;;;4.22;2.65;;;;;;;;;;11013566;26;20028;-58
2024/04/13 17:20:41;;;;;;;4.65;2.85;;;;;;;;;;10975703;26;20093;-58
2024/04/13 17:25:42;;;;;;;9.13;3.47;;;;;;;;;;10980803;26;20361;-59
2024/04/13 17:30:47;;;;;;;11.00;4.40;;;;;;;;;;10988916;26;20029;-59
2024/04/13 17:35:48;;;;;;;7.70;3.78;;;;;;;;;;11005688;26;20532;-58
2024/04/13 17:40:59;;;;;;;5.57;3.42;;;;;;;;;;11034173;26;20001;-58
2024/04/13 17:46:01;;;;;;;7.63;3.45;;;;;;;;;;10986034;26;20001;-58
2024/04/13 17:51:02;;;;;;;14.23;3.55;;;;;;;;;;11015204;26;20097;-59
2024/04/13 17:56:03;;;;;;;8.80;3.58;;;;;;;;;;11002967;26;20001;-58
2024/04/13 18:01:04;;;;;;;5.18;2.85;;;;;;;;;;11046368;26;20383;-59
2024/04/13 18:06:05;;;;;;;3.95;3.13;;;;;;;;;;11015780;26;20005;-60
2024/04/13 18:11:07;;;;;;;8.60;3.40;;;;;;;;;;11024306;26;20033;-59
2024/04/13 18:16:10;;;;;;;6.63;3.17;;;;;;;;;;11002706;26;20078;-58
2024/04/13 18:21:11;;;;;;;6.05;2.85;;;;;;;;;;10959256;26;19998;-58
2024/04/13 18:26:12;;;;;;;6.50;2.90;;;;;;;;;;10956800;26;20415;-58
2024/04/13 18:31:13;;;;;;;17.90;3.88;;;;;;;;;;10994718;26;20000;-57
2024/04/13 18:36:14;;;;;;;12.25;3.70;;;;;;;;;;10991895;26;20354;-58
2024/04/13 18:41:16;;;;;;;6.78;3.00;;;;;;;;;;11016209;26;19997;-58
2024/04/13 18:46:17;;;;;;;8.82;3.08;;;;;;;;;;11004820;26;20009;-59
2024/04/13 18:51:18;;;;;;;9.27;3.85;;;;;;;;;;11038716;26;20700;-58
2024/04/13 18:56:19;;;;;;;10.52;3.38;;;;;;;;;;11025881;26;20037;-58
2024/04/13 19:01:21;;;;;;;4.68;2.85;;;;;;;;;;11043793;26;20012;-58
2024/04/13 19:06:22;;;;;;;3.65;3.20;;;;;;;;;;10997951;26;20420;-59
2024/04/13 19:11:23;;;;;;;5.43;2.97;;;;;;;;;;11043616;26;20013;-59
2024/04/13 19:16:24;;;;;;;5.30;3.30;;;;;;;;;;11044284;26;20099;-59
2024/04/13 19:21:25;;;;;;;10.43;3.28;;;;;;;;;;11042164;26;20028;-58
2024/04/13 19:26:26;;;;;;;8.98;3.17;;;;;;;;;;11043784;26;20012;-58
2024/04/13 19:31:28;;;;;;;3.13;2.63;;;;;;;;;;11015985;26;20032;-58
2024/04/13 19:36:29;;;;;;;7.55;2.75;;;;;;;;;;11030989;26;20002;-58
2024/04/13 19:41:30;;;;;;;7.57;3.60;;;;;;;;;;11010267;26;20013;-58
2024/04/13 19:46:31;;;;;;;3.63;2.72;;;;;;;;;;11042966;26;20451;-59
2024/04/13 19:51:32;;;;;;;5.32;3.03;;;;;;;;;;11042752;26;20028;-59
2024/04/13 19:56:33;;;;;;;5.50;2.80;;;;;;;;;;11021929;26;20076;-58
2024/04/13 20:01:34;;;;;;;4.25;3.05;;;;;;;;;;11024370;26;20014;-59
2024/04/13 20:06:36;;;;;;;6.13;3.10;;;;;;;;;;11013809;26;20006;-59
2024/04/13 20:11:37;;;;;;;5.70;3.17;;;;;;;;;;11040704;26;20108;-59
2024/04/13 20:21:58;;;;;;;5.28;3.13;;;;;;;;;;10972651;26;20012;-59
2024/04/13 20:26:59;;;;;;;7.85;3.08;;;;;;;;;;10949524;26;20101;-59
2024/04/13 20:32:01;;;;;;;4.57;3.10;;;;;;;;;;10965309;26;20335;-59
2024/04/13 20:37:03;;;;;;;7.93;2.90;;;;;;;;;;10934756;26;20014;-59
2024/04/13 20:42:04;;;;;;;4.80;2.90;;;;;;;;;;10931877;26;20002;-59
2024/04/13 20:47:05;;;;;;;12.68;2.80;;;;;;;;;;10966146;26;20001;-59
2024/04/13 20:52:06;;;;;;;5.50;2.78;;;;;;;;;;10989077;26;20391;-58
2024/04/13 20:57:08;;;;;;;4.80;3.25;;;;;;;;;;10994209;26;20001;-59
2024/04/13 21:02:09;;;;;;;4.03;2.88;;;;;;;;;;11006060;26;20029;-59
2024/04/13 21:07:10;;;;;;;8.05;2.78;;;;;;;;;;10986151;26;20324;-59
2024/04/13 21:12:11;;;;;;;9.95;2.72;;;;;;;;;;10994192;26;20013;-59
2024/04/13 21:17:12;;;;;;;4.68;2.90;;;;;;;;;;10984121;26;20541;-59
2024/04/13 21:22:13;;;;;;;3.75;2.78;;;;;;;;;;10986372;26;20101;-59
2024/04/13 21:27:14;;;;;;;7.75;3.28;;;;;;;;;;10985232;26;20045;-59
2024/04/13 21:32:16;;;;;;;5.30;3.10;;;;;;;;;;11022181;26;20092;-59
2024/04/13 21:37:17;;;;;;;4.15;2.50;;;;;;;;;;11005217;26;20011;-59
2024/04/13 21:42:18;;;;;;;4.97;2.67;;;;;;;;;;10996136;26;20601;-59
2024/04/13 21:47:19;;;;;;;4.90;2.63;;;;;;;;;;10987221;26;20006;-59
2024/04/13 21:52:20;;;;;;;9.60;3.03;;;;;;;;;;11015539;26;20359;-59
2024/04/13 21:57:21;;;;;;;4.63;2.70;;;;;;;;;;11036417;26;20117;-58
2024/04/13 22:02:23;;;;;;;3.95;2.80;;;;;;;;;;11010156;26;20002;-59
2024/04/13 22:07:24;;;;;;;31.48;3.55;;;;;;;;;;10962811;26;20078;-60
2024/04/13 22:12:26;;;;;;;4.35;3.10;;;;;;;;;;11028177;26;20009;-59
2024/04/13 22:17:27;;;;;;;11.13;2.75;;;;;;;;;;11041105;26;20534;-59
2024/04/13 22:22:28;;;;;;;8.65;2.58;;;;;;;;;;10999841;26;20029;-59
2024/04/13 22:27:29;;;;;;;8.48;2.90;;;;;;;;;;10992864;26;20024;-59
2024/04/13 22:32:30;;;;;;;6.80;2.60;;;;;;;;;;11023478;26;20033;-61
2024/04/13 22:37:32;;;;;;;4.22;2.50;;;;;;;;;;11020804;26;20382;-59
2024/04/13 22:42:33;;;;;;;8.32;3.00;;;;;;;;;;11020884;26;20107;-59
2024/04/13 22:47:34;;;;;;;9.32;2.92;;;;;;;;;;10976129;26;20041;-59
2024/04/13 22:52:35;;;;;;;7.10;3.03;;;;;;;;;;10983083;26;20071;-58
2024/04/13 22:57:36;;;;;;;8.52;3.08;;;;;;;;;;10980161;26;20009;-59
2024/04/13 23:02:38;;;;;;;7.82;2.92;;;;;;;;;;10976042;26;20071;-59
2024/04/13 23:07:39;;;;;;;3.10;2.63;;;;;;;;;;10996164;26;20414;-61
2024/04/13 23:12:40;;;;;;;5.35;2.67;;;;;;;;;;11006523;26;20101;-59
2024/04/13 23:17:41;;;;;;;8.13;2.60;;;;;;;;;;10991102;26;20002;-59
2024/04/13 23:22:42;;;;;;;3.78;2.78;;;;;;;;;;10993881;26;20033;-59
2024/04/13 23:27:43;;;;;;;2.90;2.67;;;;;;;;;;11003895;26;20048;-59
2024/04/13 23:32:44;;;;;;;6.82;2.88;;;;;;;;;;11009116;26;20395;-58
2024/04/13 23:37:45;;;;;;;6.55;2.90;;;;;;;;;;11011320;26;20001;-59
2024/04/13 23:42:46;;;;;;;6.07;2.53;;;;;;;;;;11012078;26;19997;-59
2024/04/13 23:47:47;;;;;;;3.97;2.60;;;;;;;;;;11012759;26;20101;-59
2024/04/13 23:52:49;;;;;;;3.05;2.75;;;;;;;;;;11003697;26;20057;-61
2024/04/13 23:57:51;;;;;;;7.57;2.47;;;;;;;;;;11005028;26;20006;-60
